sensor_id;sensor_type;location;lat;lon;timestamp;pressure;altitude;pressure_sealevel;temperature;humidity
61474;BME280;53694;49.784;30.150;2024-01-30T00:00:43;102075.24;;;-1.79;68.55
61474;BME280;53694;49.784;30.150;2024-01-30T00:01:45;102079.52;;;-1.96;69.11
61474;BME280;53694;49.784;30.150;2024-01-30T00:02:46;102070.31;;;-2.14;69.65
61474;BME280;53694;49.784;30.150;2024-01-30T00:03:48;102071.45;;;-2.28;70.13
61474;BME280;53694;49.784;30.150;2024-01-30T00:04:49;102074.22;;;-2.41;70.62
61474;BME280;53694;49.784;30.150;2024-01-30T00:05:50;102072.20;;;-2.53;71.12
61474;BME280;53694;49.784;30.150;2024-01-30T00:06:52;102075.94;;;-2.54;71.40
61474;BME280;53694;49.784;30.150;2024-01-30T00:07:54;102062.64;;;-2.42;71.46
61474;BME280;53694;49.784;30.150;2024-01-30T00:08:55;102078.14;;;-2.06;71.19
61474;BME280;53694;49.784;30.150;2024-01-30T00:09:57;102082.03;;;-1.70;70.38
61474;BME280;53694;49.784;30.150;2024-01-30T00:10:59;102089.76;;;-1.30;69.57
61474;BME280;53694;49.784;30.150;2024-01-30T00:12:01;102078.09;;;-0.87;68.65
61474;BME280;53694;49.784;30.150;2024-01-30T00:13:02;102084.06;;;-0.48;67.32
61474;BME280;53694;49.784;30.150;2024-01-30T00:14:04;102086.76;;;-0.18;66.50
61474;BME280;53694;49.784;30.150;2024-01-30T00:15:06;102083.05;;;-0.06;65.40
61474;BME280;53694;49.784;30.150;2024-01-30T00:16:19;102085.16;;;-0.08;65.10
61474;BME280;53694;49.784;30.150;2024-01-30T00:17:12;102090.28;;;-0.18;65.01
61474;BME280;53694;49.784;30.150;2024-01-30T00:18:14;102083.88;;;-0.35;64.99
61474;BME280;53694;49.784;30.150;2024-01-30T00:19:15;102087.06;;;-0.57;65.03
61474;BME280;53694;49.784;30.150;2024-01-30T00:20:18;102087.77;;;-0.80;65.31
61474;BME280;53694;49.784;30.150;2024-01-30T00:21:20;102085.52;;;-1.01;65.92
61474;BME280;53694;49.784;30.150;2024-01-30T00:22:22;102083.02;;;-1.21;66.36
61474;BME280;53694;49.784;30.150;2024-01-30T00:23:23;102084.64;;;-1.38;66.85
61474;BME280;53694;49.784;30.150;2024-01-30T00:24:25;102080.63;;;-1.54;67.28
61474;BME280;53694;49.784;30.150;2024-01-30T00:25:28;102075.36;;;-1.67;67.68
61474;BME280;53694;49.784;30.150;2024-01-30T00:26:30;102077.94;;;-1.79;68.07
61474;BME280;53694;49.784;30.150;2024-01-30T00:27:31;102085.07;;;-1.91;68.42
61474;BME280;53694;49.784;30.150;2024-01-30T00:28:33;102085.79;;;-2.03;68.83
61474;BME280;53694;49.784;30.150;2024-01-30T00:29:34;102084.41;;;-2.12;69.17
61474;BME280;53694;49.784;30.150;2024-01-30T00:30:36;102082.39;;;-2.23;69.46
61474;BME280;53694;49.784;30.150;2024-01-30T00:31:38;102085.34;;;-2.31;69.88
61474;BME280;53694;49.784;30.150;2024-01-30T00:32:39;102089.91;;;-2.38;70.18
61474;BME280;53694;49.784;30.150;2024-01-30T00:33:41;102076.94;;;-2.48;70.46
61474;BME280;53694;49.784;30.150;2024-01-30T00:34:43;102075.94;;;-2.54;70.81
61474;BME280;53694;49.784;30.150;2024-01-30T00:35:44;102070.14;;;-2.50;71.01
61474;BME280;53694;49.784;30.150;2024-01-30T00:36:46;102079.12;;;-2.32;71.11
61474;BME280;53694;49.784;30.150;2024-01-30T00:37:48;102073.54;;;-1.98;70.75
61474;BME280;53694;49.784;30.150;2024-01-30T00:38:50;102069.93;;;-1.61;69.95
61474;BME280;53694;49.784;30.150;2024-01-30T00:39:51;102072.00;;;-1.19;69.18
61474;BME280;53694;49.784;30.150;2024-01-30T00:40:53;102063.02;;;-0.77;68.33
61474;BME280;53694;49.784;30.150;2024-01-30T00:41:54;102064.10;;;-0.47;67.08
61474;BME280;53694;49.784;30.150;2024-01-30T00:42:56;102066.03;;;-0.36;66.26
61474;BME280;53694;49.784;30.150;2024-01-30T00:43:58;102052.78;;;-0.38;66.08
61474;BME280;53694;49.784;30.150;2024-01-30T00:44:59;102068.92;;;-0.49;65.80
61474;BME280;53694;49.784;30.150;2024-01-30T00:46:01;102068.95;;;-0.68;66.01
61474;BME280;53694;49.784;30.150;2024-01-30T00:47:02;102062.97;;;-0.88;66.43
61474;BME280;53694;49.784;30.150;2024-01-30T00:48:05;102063.19;;;-1.08;66.84
61474;BME280;53694;49.784;30.150;2024-01-30T00:49:06;102060.48;;;-1.27;67.42
61474;BME280;53694;49.784;30.150;2024-01-30T00:50:09;102067.27;;;-1.42;67.76
61474;BME280;53694;49.784;30.150;2024-01-30T00:51:10;102063.26;;;-1.58;68.13
61474;BME280;53694;49.784;30.150;2024-01-30T00:52:12;102063.61;;;-1.73;68.52
61474;BME280;53694;49.784;30.150;2024-01-30T00:53:13;102062.05;;;-1.87;68.86
61474;BME280;53694;49.784;30.150;2024-01-30T00:54:15;102061.13;;;-1.99;69.18
61474;BME280;53694;49.784;30.150;2024-01-30T00:55:17;102069.89;;;-2.11;69.52
61474;BME280;53694;49.784;30.150;2024-01-30T00:56:19;102062.30;;;-2.20;69.82
61474;BME280;53694;49.784;30.150;2024-01-30T00:57:21;102060.06;;;-2.30;70.17
61474;BME280;53694;49.784;30.150;2024-01-30T00:58:22;102061.76;;;-2.36;70.53
61474;BME280;53694;49.784;30.150;2024-01-30T00:59:24;102058.08;;;-2.41;70.85
61474;BME280;53694;49.784;30.150;2024-01-30T01:00:25;102049.55;;;-2.38;70.96
61474;BME280;53694;49.784;30.150;2024-01-30T01:01:27;102059.80;;;-2.22;70.90
61474;BME280;53694;49.784;30.150;2024-01-30T01:02:28;102052.75;;;-1.91;70.70
61474;BME280;53694;49.784;30.150;2024-01-30T01:03:30;102050.55;;;-1.51;69.97
61474;BME280;53694;49.784;30.150;2024-01-30T01:04:32;102057.41;;;-1.12;68.94
61474;BME280;53694;49.784;30.150;2024-01-30T01:05:33;102051.57;;;-0.72;68.21
61474;BME280;53694;49.784;30.150;2024-01-30T01:06:35;102051.34;;;-0.40;67.27
61474;BME280;53694;49.784;30.150;2024-01-30T01:07:36;102055.49;;;-0.26;66.44
61474;BME280;53694;49.784;30.150;2024-01-30T01:08:38;102047.63;;;-0.28;66.06
61474;BME280;53694;49.784;30.150;2024-01-30T01:09:39;102043.83;;;-0.38;65.79
61474;BME280;53694;49.784;30.150;2024-01-30T01:10:41;102051.98;;;-0.57;66.00
61474;BME280;53694;49.784;30.150;2024-01-30T01:11:43;102044.98;;;-0.76;66.43
61474;BME280;53694;49.784;30.150;2024-01-30T01:12:45;102050.84;;;-0.97;66.76
61474;BME280;53694;49.784;30.150;2024-01-30T01:13:47;102041.09;;;-1.17;67.44
61474;BME280;53694;49.784;30.150;2024-01-30T01:14:49;102044.80;;;-1.36;67.88
61474;BME280;53694;49.784;30.150;2024-01-30T01:15:50;102045.40;;;-1.53;68.40
61474;BME280;53694;49.784;30.150;2024-01-30T01:16:52;102048.80;;;-1.64;68.75
61474;BME280;53694;49.784;30.150;2024-01-30T01:17:54;102043.53;;;-1.77;69.01
61474;BME280;53694;49.784;30.150;2024-01-30T01:18:55;102036.16;;;-1.88;69.29
61474;BME280;53694;49.784;30.150;2024-01-30T01:19:57;102043.69;;;-1.97;69.62
61474;BME280;53694;49.784;30.150;2024-01-30T01:20:59;102044.18;;;-2.07;69.88
61474;BME280;53694;49.784;30.150;2024-01-30T01:22:01;102041.75;;;-2.15;70.19
61474;BME280;53694;49.784;30.150;2024-01-30T01:23:02;102047.17;;;-2.21;70.58
61474;BME280;53694;49.784;30.150;2024-01-30T01:24:04;102047.23;;;-2.28;70.90
61474;BME280;53694;49.784;30.150;2024-01-30T01:25:06;102048.45;;;-2.24;71.14
61474;BME280;53694;49.784;30.150;2024-01-30T01:26:08;102042.31;;;-2.06;71.11
61474;BME280;53694;49.784;30.150;2024-01-30T01:27:09;102049.52;;;-1.75;70.87
61474;BME280;53694;49.784;30.150;2024-01-30T01:28:11;102042.95;;;-1.36;70.21
61474;BME280;53694;49.784;30.150;2024-01-30T01:29:12;102042.27;;;-0.94;69.31
61474;BME280;53694;49.784;30.150;2024-01-30T01:30:14;102036.53;;;-0.49;68.20
61474;BME280;53694;49.784;30.150;2024-01-30T01:31:16;102029.95;;;-0.12;66.35
61474;BME280;53694;49.784;30.150;2024-01-30T01:32:18;102034.47;;;0.18;65.31
61474;BME280;53694;49.784;30.150;2024-01-30T01:33:20;102031.76;;;0.30;64.62
61474;BME280;53694;49.784;30.150;2024-01-30T01:34:21;102030.72;;;0.31;64.20
61474;BME280;53694;49.784;30.150;2024-01-30T01:35:23;102026.37;;;0.18;63.81
61474;BME280;53694;49.784;30.150;2024-01-30T01:36:25;102021.03;;;-0.01;64.10
61474;BME280;53694;49.784;30.150;2024-01-30T01:37:27;102020.55;;;-0.21;64.35
61474;BME280;53694;49.784;30.150;2024-01-30T01:38:29;102022.47;;;-0.40;64.77
61474;BME280;53694;49.784;30.150;2024-01-30T01:39:30;102015.25;;;-0.58;65.16
61474;BME280;53694;49.784;30.150;2024-01-30T01:40:33;102020.08;;;-0.78;65.46
61474;BME280;53694;49.784;30.150;2024-01-30T01:41:35;102013.08;;;-0.97;65.94
61474;BME280;53694;49.784;30.150;2024-01-30T01:42:36;102016.81;;;-1.17;66.52
61474;BME280;53694;49.784;30.150;2024-01-30T01:43:38;102018.46;;;-1.34;67.05
61474;BME280;53694;49.784;30.150;2024-01-30T01:44:39;102008.88;;;-1.48;67.60
61474;BME280;53694;49.784;30.150;2024-01-30T01:45:41;102017.06;;;-1.62;68.04
61474;BME280;53694;49.784;30.150;2024-01-30T01:46:43;102013.23;;;-1.72;68.51
61474;BME280;53694;49.784;30.150;2024-01-30T01:47:51;102014.57;;;-1.82;68.98
61474;BME280;53694;49.784;30.150;2024-01-30T01:48:49;102011.53;;;-1.92;69.37
61474;BME280;53694;49.784;30.150;2024-01-30T01:49:51;102008.29;;;-2.01;69.72
61474;BME280;53694;49.784;30.150;2024-01-30T01:50:53;102002.74;;;-2.06;70.08
61474;BME280;53694;49.784;30.150;2024-01-30T01:51:56;102000.71;;;-2.10;70.38
61474;BME280;53694;49.784;30.150;2024-01-30T01:52:58;102000.32;;;-2.14;70.62
61474;BME280;53694;49.784;30.150;2024-01-30T01:54:02;102001.96;;;-2.13;70.80
61474;BME280;53694;49.784;30.150;2024-01-30T01:55:05;101999.34;;;-1.94;70.85
61474;BME280;53694;49.784;30.150;2024-01-30T01:56:08;102003.23;;;-1.65;70.21
61474;BME280;53694;49.784;30.150;2024-01-30T01:57:10;102005.36;;;-1.31;69.66
61474;BME280;53694;49.784;30.150;2024-01-30T01:58:12;102006.52;;;-0.90;68.88
61474;BME280;53694;49.784;30.150;2024-01-30T01:59:14;102006.83;;;-0.49;68.10
61474;BME280;53694;49.784;30.150;2024-01-30T02:00:17;101997.42;;;-0.17;67.46
61474;BME280;53694;49.784;30.150;2024-01-30T02:01:19;102004.37;;;0.03;66.54
61474;BME280;53694;49.784;30.150;2024-01-30T02:02:23;101994.73;;;0.07;66.00
61474;BME280;53694;49.784;30.150;2024-01-30T02:03:26;101991.31;;;-0.01;65.39
61474;BME280;53694;49.784;30.150;2024-01-30T02:04:27;101999.27;;;-0.17;65.26
61474;BME280;53694;49.784;30.150;2024-01-30T02:05:29;102000.17;;;-0.35;65.56
61474;BME280;53694;49.784;30.150;2024-01-30T02:06:33;101995.42;;;-0.52;65.93
61474;BME280;53694;49.784;30.150;2024-01-30T02:07:35;101994.42;;;-0.69;66.24
61474;BME280;53694;49.784;30.150;2024-01-30T02:08:37;101990.71;;;-0.86;66.52
61474;BME280;53694;49.784;30.150;2024-01-30T02:09:39;102001.09;;;-1.02;66.97
61474;BME280;53694;49.784;30.150;2024-01-30T02:10:41;101997.13;;;-1.17;67.34
61474;BME280;53694;49.784;30.150;2024-01-30T02:11:42;101988.81;;;-1.34;67.64
61474;BME280;53694;49.784;30.150;2024-01-30T02:12:44;101998.53;;;-1.52;68.14
61474;BME280;53694;49.784;30.150;2024-01-30T02:13:46;101991.61;;;-1.66;68.69
61474;BME280;53694;49.784;30.150;2024-01-30T02:14:48;101996.10;;;-1.78;69.05
61474;BME280;53694;49.784;30.150;2024-01-30T02:15:51;101985.65;;;-1.93;69.48
61474;BME280;53694;49.784;30.150;2024-01-30T02:16:53;101984.52;;;-2.04;69.99
61474;BME280;53694;49.784;30.150;2024-01-30T02:17:55;101982.09;;;-2.12;70.45
61474;BME280;53694;49.784;30.150;2024-01-30T02:18:57;101991.66;;;-2.16;70.68
61474;BME280;53694;49.784;30.150;2024-01-30T02:19:59;101983.38;;;-2.21;70.94
61474;BME280;53694;49.784;30.150;2024-01-30T02:21:04;101981.73;;;-2.22;71.08
61474;BME280;53694;49.784;30.150;2024-01-30T02:22:07;101984.52;;;-2.04;71.14
61474;BME280;53694;49.784;30.150;2024-01-30T02:23:09;101979.66;;;-1.70;70.93
61474;BME280;53694;49.784;30.150;2024-01-30T02:24:11;101978.41;;;-1.31;70.23
61474;BME280;53694;49.784;30.150;2024-01-30T02:25:13;101986.14;;;-0.86;69.19
61474;BME280;53694;49.784;30.150;2024-01-30T02:26:15;101982.66;;;-0.44;67.84
61474;BME280;53694;49.784;30.150;2024-01-30T02:27:17;101978.51;;;-0.05;67.10
61474;BME280;53694;49.784;30.150;2024-01-30T02:28:19;101982.53;;;0.28;66.19
61474;BME280;53694;49.784;30.150;2024-01-30T02:29:21;101978.77;;;0.40;65.06
61474;BME280;53694;49.784;30.150;2024-01-30T02:30:23;101976.06;;;0.40;64.50
61474;BME280;53694;49.784;30.150;2024-01-30T02:31:25;101977.95;;;0.28;64.21
61474;BME280;53694;49.784;30.150;2024-01-30T02:32:27;101978.07;;;0.10;64.34
61474;BME280;53694;49.784;30.150;2024-01-30T02:33:28;101973.81;;;-0.10;64.75
61474;BME280;53694;49.784;30.150;2024-01-30T02:34:30;101971.66;;;-0.31;64.88
61474;BME280;53694;49.784;30.150;2024-01-30T02:35:32;101972.64;;;-0.56;65.32
61474;BME280;53694;49.784;30.150;2024-01-30T02:36:34;101972.33;;;-0.78;65.93
61474;BME280;53694;49.784;30.150;2024-01-30T02:37:35;101970.36;;;-1.01;66.58
61474;BME280;53694;49.784;30.150;2024-01-30T02:38:37;101970.39;;;-1.19;67.19
61474;BME280;53694;49.784;30.150;2024-01-30T02:39:38;101966.42;;;-1.35;67.75
61474;BME280;53694;49.784;30.150;2024-01-30T02:40:40;101967.83;;;-1.51;68.32
61474;BME280;53694;49.784;30.150;2024-01-30T02:41:42;101966.33;;;-1.65;68.81
61474;BME280;53694;49.784;30.150;2024-01-30T02:42:43;101966.47;;;-1.78;69.32
61474;BME280;53694;49.784;30.150;2024-01-30T02:43:45;101971.95;;;-1.91;69.86
61474;BME280;53694;49.784;30.150;2024-01-30T02:44:47;101960.05;;;-2.02;70.41
61474;BME280;53694;49.784;30.150;2024-01-30T02:45:48;101957.04;;;-2.12;70.88
61474;BME280;53694;49.784;30.150;2024-01-30T02:46:50;101960.20;;;-2.22;71.36
61474;BME280;53694;49.784;30.150;2024-01-30T02:47:52;101958.56;;;-2.23;71.75
61474;BME280;53694;49.784;30.150;2024-01-30T02:48:53;101958.84;;;-2.06;71.70
61474;BME280;53694;49.784;30.150;2024-01-30T02:49:55;101957.34;;;-1.77;71.39
61474;BME280;53694;49.784;30.150;2024-01-30T02:50:57;101957.58;;;-1.42;70.62
61474;BME280;53694;49.784;30.150;2024-01-30T02:51:58;101963.54;;;-1.03;69.89
61474;BME280;53694;49.784;30.150;2024-01-30T02:53:00;101967.56;;;-0.64;68.89
61474;BME280;53694;49.784;30.150;2024-01-30T02:54:01;101953.36;;;-0.29;67.54
61474;BME280;53694;49.784;30.150;2024-01-30T02:55:03;101959.96;;;-0.02;66.75
61474;BME280;53694;49.784;30.150;2024-01-30T02:56:06;101964.45;;;0.05;65.86
61474;BME280;53694;49.784;30.150;2024-01-30T02:57:08;101958.33;;;-0.03;65.50
61474;BME280;53694;49.784;30.150;2024-01-30T02:58:09;101958.19;;;-0.19;65.65
61474;BME280;53694;49.784;30.150;2024-01-30T02:59:10;101954.39;;;-0.42;65.87
61474;BME280;53694;49.784;30.150;2024-01-30T03:00:13;101949.16;;;-0.67;66.27
61474;BME280;53694;49.784;30.150;2024-01-30T03:01:15;101953.87;;;-0.92;66.94
61474;BME280;53694;49.784;30.150;2024-01-30T03:02:16;101951.52;;;-1.19;67.59
61474;BME280;53694;49.784;30.150;2024-01-30T03:03:18;101954.50;;;-1.45;68.32
61474;BME280;53694;49.784;30.150;2024-01-30T03:04:19;101942.76;;;-1.69;69.19
61474;BME280;53694;49.784;30.150;2024-01-30T03:05:21;101951.46;;;-1.92;69.98
61474;BME280;53694;49.784;30.150;2024-01-30T03:06:23;101947.91;;;-2.11;70.68
61474;BME280;53694;49.784;30.150;2024-01-30T03:07:25;101958.17;;;-2.27;71.30
61474;BME280;53694;49.784;30.150;2024-01-30T03:08:26;101950.20;;;-2.40;71.77
61474;BME280;53694;49.784;30.150;2024-01-30T03:09:28;101957.48;;;-2.47;72.35
61474;BME280;53694;49.784;30.150;2024-01-30T03:10:29;101954.34;;;-2.37;72.50
61474;BME280;53694;49.784;30.150;2024-01-30T03:11:31;101951.04;;;-2.14;72.29
61474;BME280;53694;49.784;30.150;2024-01-30T03:12:33;101952.38;;;-1.80;71.73
61474;BME280;53694;49.784;30.150;2024-01-30T03:13:34;101951.95;;;-1.40;71.02
61474;BME280;53694;49.784;30.150;2024-01-30T03:14:36;101955.23;;;-1.02;69.98
61474;BME280;53694;49.784;30.150;2024-01-30T03:15:37;101968.42;;;-0.63;68.59
61474;BME280;53694;49.784;30.150;2024-01-30T03:16:39;101956.40;;;-0.37;67.08
61474;BME280;53694;49.784;30.150;2024-01-30T03:17:41;101958.55;;;-0.16;66.45
61474;BME280;53694;49.784;30.150;2024-01-30T03:18:42;101961.37;;;-0.11;65.73
61474;BME280;53694;49.784;30.150;2024-01-30T03:19:44;101959.00;;;-0.19;65.70
61474;BME280;53694;49.784;30.150;2024-01-30T03:20:46;101953.91;;;-0.39;65.59
61474;BME280;53694;49.784;30.150;2024-01-30T03:21:47;101951.38;;;-0.64;66.08
61474;BME280;53694;49.784;30.150;2024-01-30T03:22:48;101949.88;;;-0.90;66.67
61474;BME280;53694;49.784;30.150;2024-01-30T03:23:50;101947.53;;;-1.16;67.30
61474;BME280;53694;49.784;30.150;2024-01-30T03:24:51;101951.95;;;-1.40;67.97
61474;BME280;53694;49.784;30.150;2024-01-30T03:25:53;101953.69;;;-1.64;68.67
61474;BME280;53694;49.784;30.150;2024-01-30T03:26:54;101957.00;;;-1.87;69.46
61474;BME280;53694;49.784;30.150;2024-01-30T03:27:56;101958.02;;;-2.07;70.16
61474;BME280;53694;49.784;30.150;2024-01-30T03:28:58;101955.28;;;-2.25;70.88
61474;BME280;53694;49.784;30.150;2024-01-30T03:29:59;101951.25;;;-2.41;71.52
61474;BME280;53694;49.784;30.150;2024-01-30T03:31:01;101950.70;;;-2.49;72.05
61474;BME280;53694;49.784;30.150;2024-01-30T03:32:03;101947.52;;;-2.40;72.30
61474;BME280;53694;49.784;30.150;2024-01-30T03:33:05;101940.93;;;-2.19;72.07
61474;BME280;53694;49.784;30.150;2024-01-30T03:34:07;101943.77;;;-1.89;71.55
61474;BME280;53694;49.784;30.150;2024-01-30T03:35:09;101944.48;;;-1.57;70.84
61474;BME280;53694;49.784;30.150;2024-01-30T03:36:11;101941.38;;;-1.23;70.00
61474;BME280;53694;49.784;30.150;2024-01-30T03:37:13;101946.15;;;-0.89;69.14
61474;BME280;53694;49.784;30.150;2024-01-30T03:38:14;101939.67;;;-0.58;68.22
61474;BME280;53694;49.784;30.150;2024-01-30T03:39:16;101945.27;;;-0.29;67.41
61474;BME280;53694;49.784;30.150;2024-01-30T03:40:19;101945.73;;;-0.09;66.45
61474;BME280;53694;49.784;30.150;2024-01-30T03:41:20;101943.28;;;-0.10;65.78
61474;BME280;53694;49.784;30.150;2024-01-30T03:42:22;101949.48;;;-0.21;65.88
61474;BME280;53694;49.784;30.150;2024-01-30T03:43:23;101948.99;;;-0.42;65.94
61474;BME280;53694;49.784;30.150;2024-01-30T03:44:25;101946.91;;;-0.70;66.39
61474;BME280;53694;49.784;30.150;2024-01-30T03:45:26;101956.44;;;-0.97;67.04
61474;BME280;53694;49.784;30.150;2024-01-30T03:46:28;101949.71;;;-1.25;67.75
61474;BME280;53694;49.784;30.150;2024-01-30T03:47:30;101957.49;;;-1.54;68.51
61474;BME280;53694;49.784;30.150;2024-01-30T03:48:31;101954.64;;;-1.77;69.25
61474;BME280;53694;49.784;30.150;2024-01-30T03:49:33;101949.66;;;-1.98;69.93
61474;BME280;53694;49.784;30.150;2024-01-30T03:50:35;101941.98;;;-2.20;70.66
61474;BME280;53694;49.784;30.150;2024-01-30T03:51:36;101944.59;;;-2.38;71.29
61474;BME280;53694;49.784;30.150;2024-01-30T03:52:38;101938.09;;;-2.56;71.95
61474;BME280;53694;49.784;30.150;2024-01-30T03:53:41;101933.59;;;-2.62;72.51
61474;BME280;53694;49.784;30.150;2024-01-30T03:54:42;101932.52;;;-2.54;72.74
61474;BME280;53694;49.784;30.150;2024-01-30T03:55:44;101930.86;;;-2.30;72.59
61474;BME280;53694;49.784;30.150;2024-01-30T03:56:46;101928.33;;;-2.00;71.96
61474;BME280;53694;49.784;30.150;2024-01-30T03:57:48;101927.41;;;-1.69;71.01
61474;BME280;53694;49.784;30.150;2024-01-30T03:58:49;101925.84;;;-1.40;70.04
61474;BME280;53694;49.784;30.150;2024-01-30T03:59:51;101925.06;;;-1.10;69.37
61474;BME280;53694;49.784;30.150;2024-01-30T04:00:53;101924.25;;;-0.81;68.42
61474;BME280;53694;49.784;30.150;2024-01-30T04:01:55;101920.91;;;-0.53;67.86
61474;BME280;53694;49.784;30.150;2024-01-30T04:02:56;101922.94;;;-0.36;66.65
61474;BME280;53694;49.784;30.150;2024-01-30T04:03:58;101915.66;;;-0.36;66.20
61474;BME280;53694;49.784;30.150;2024-01-30T04:04:59;101912.35;;;-0.49;65.89
61474;BME280;53694;49.784;30.150;2024-01-30T04:06:01;101910.52;;;-0.79;66.10
61474;BME280;53694;49.784;30.150;2024-01-30T04:07:03;101903.70;;;-1.12;66.83
61474;BME280;53694;49.784;30.150;2024-01-30T04:08:05;101907.19;;;-1.41;67.66
61474;BME280;53694;49.784;30.150;2024-01-30T04:09:07;101910.05;;;-1.73;68.65
61474;BME280;53694;49.784;30.150;2024-01-30T04:10:09;101903.89;;;-1.98;69.46
61474;BME280;53694;49.784;30.150;2024-01-30T04:11:11;101904.30;;;-2.20;70.13
61474;BME280;53694;49.784;30.150;2024-01-30T04:12:13;101904.69;;;-2.41;70.84
61474;BME280;53694;49.784;30.150;2024-01-30T04:13:14;101899.22;;;-2.60;71.48
61474;BME280;53694;49.784;30.150;2024-01-30T04:14:16;101897.84;;;-2.69;72.03
61474;BME280;53694;49.784;30.150;2024-01-30T04:15:18;101899.22;;;-2.60;72.21
61474;BME280;53694;49.784;30.150;2024-01-30T04:16:21;101898.41;;;-2.35;72.00
61474;BME280;53694;49.784;30.150;2024-01-30T04:17:23;101905.38;;;-2.03;71.64
61474;BME280;53694;49.784;30.150;2024-01-30T04:18:25;101897.16;;;-1.71;70.78
61474;BME280;53694;49.784;30.150;2024-01-30T04:19:26;101895.96;;;-1.38;69.92
61474;BME280;53694;49.784;30.150;2024-01-30T04:20:30;101892.47;;;-1.09;68.88
61474;BME280;53694;49.784;30.150;2024-01-30T04:21:31;101891.63;;;-0.79;67.96
61474;BME280;53694;49.784;30.150;2024-01-30T04:22:33;101887.79;;;-0.60;67.14
61474;BME280;53694;49.784;30.150;2024-01-30T04:23:34;101892.16;;;-0.59;66.63
61474;BME280;53694;49.784;30.150;2024-01-30T04:24:36;101884.60;;;-0.68;66.52
61474;BME280;53694;49.784;30.150;2024-01-30T04:25:39;101885.83;;;-0.94;66.60
61474;BME280;53694;49.784;30.150;2024-01-30T04:26:40;101896.61;;;-1.24;67.21
61474;BME280;53694;49.784;30.150;2024-01-30T04:27:42;101881.45;;;-1.56;68.01
61474;BME280;53694;49.784;30.150;2024-01-30T04:28:46;101891.92;;;-1.84;68.92
61474;BME280;53694;49.784;30.150;2024-01-30T04:29:48;101887.63;;;-2.10;69.76
61474;BME280;53694;49.784;30.150;2024-01-30T04:30:50;101893.84;;;-2.35;70.62
61474;BME280;53694;49.784;30.150;2024-01-30T04:31:51;101895.70;;;-2.60;71.56
61474;BME280;53694;49.784;30.150;2024-01-30T04:32:53;101887.80;;;-2.80;72.30
61474;BME280;53694;49.784;30.150;2024-01-30T04:33:54;101883.70;;;-2.89;72.92
61474;BME280;53694;49.784;30.150;2024-01-30T04:34:56;101883.24;;;-2.80;73.08
61474;BME280;53694;49.784;30.150;2024-01-30T04:35:58;101891.54;;;-2.56;72.91
61474;BME280;53694;49.784;30.150;2024-01-30T04:36:59;101891.27;;;-2.23;72.21
61474;BME280;53694;49.784;30.150;2024-01-30T04:38:01;101891.77;;;-1.89;71.33
61474;BME280;53694;49.784;30.150;2024-01-30T04:39:02;101891.41;;;-1.56;70.50
61474;BME280;53694;49.784;30.150;2024-01-30T04:40:05;101886.64;;;-1.24;69.52
61474;BME280;53694;49.784;30.150;2024-01-30T04:41:07;101882.09;;;-0.93;68.48
61474;BME280;53694;49.784;30.150;2024-01-30T04:42:09;101875.11;;;-0.71;67.30
61474;BME280;53694;49.784;30.150;2024-01-30T04:43:10;101879.02;;;-0.55;66.46
61474;BME280;53694;49.784;30.150;2024-01-30T04:44:12;101883.57;;;-0.56;66.27
61474;BME280;53694;49.784;30.150;2024-01-30T04:45:14;101885.09;;;-0.71;66.16
61474;BME280;53694;49.784;30.150;2024-01-30T04:46:16;101883.37;;;-0.96;66.53
61474;BME280;53694;49.784;30.150;2024-01-30T04:47:17;101883.95;;;-1.24;67.11
61474;BME280;53694;49.784;30.150;2024-01-30T04:48:19;101886.41;;;-1.53;67.74
61474;BME280;53694;49.784;30.150;2024-01-30T04:49:20;101889.38;;;-1.79;68.46
61474;BME280;53694;49.784;30.150;2024-01-30T04:50:23;101897.14;;;-2.08;69.28
61474;BME280;53694;49.784;30.150;2024-01-30T04:51:24;101891.98;;;-2.34;70.15
61474;BME280;53694;49.784;30.150;2024-01-30T04:52:26;101895.28;;;-2.57;70.95
61474;BME280;53694;49.784;30.150;2024-01-30T04:53:29;101886.33;;;-2.76;71.64
61474;BME280;53694;49.784;30.150;2024-01-30T04:54:30;101883.90;;;-2.84;72.22
61474;BME280;53694;49.784;30.150;2024-01-30T04:55:35;101896.46;;;-2.78;72.53
61474;BME280;53694;49.784;30.150;2024-01-30T04:56:37;101893.18;;;-2.55;72.35
61474;BME280;53694;49.784;30.150;2024-01-30T04:57:38;101897.70;;;-2.24;71.81
61474;BME280;53694;49.784;30.150;2024-01-30T04:58:40;101893.64;;;-1.90;71.08
61474;BME280;53694;49.784;30.150;2024-01-30T04:59:41;101887.90;;;-1.57;70.11
61474;BME280;53694;49.784;30.150;2024-01-30T05:00:43;101884.56;;;-1.22;69.43
61474;BME280;53694;49.784;30.150;2024-01-30T05:01:45;101887.02;;;-0.90;68.28
61474;BME280;53694;49.784;30.150;2024-01-30T05:02:46;101887.79;;;-0.60;67.56
61474;BME280;53694;49.784;30.150;2024-01-30T05:03:48;101888.30;;;-0.39;66.44
61474;BME280;53694;49.784;30.150;2024-01-30T05:04:49;101883.72;;;-0.39;65.73
61474;BME280;53694;49.784;30.150;2024-01-30T05:05:50;101888.06;;;-0.49;65.63
61474;BME280;53694;49.784;30.150;2024-01-30T05:06:52;101884.84;;;-0.70;65.63
61474;BME280;53694;49.784;30.150;2024-01-30T05:07:54;101893.78;;;-0.99;65.97
61474;BME280;53694;49.784;30.150;2024-01-30T05:08:55;101886.95;;;-1.32;66.61
61474;BME280;53694;49.784;30.150;2024-01-30T05:09:57;101882.58;;;-1.63;67.39
61474;BME280;53694;49.784;30.150;2024-01-30T05:11:02;101887.87;;;-1.93;68.28
61474;BME280;53694;49.784;30.150;2024-01-30T05:12:04;101889.16;;;-2.21;69.13
61474;BME280;53694;49.784;30.150;2024-01-30T05:13:06;101886.94;;;-2.49;70.07
61474;BME280;53694;49.784;30.150;2024-01-30T05:14:08;101884.81;;;-2.72;70.90
61474;BME280;53694;49.784;30.150;2024-01-30T05:15:09;101888.25;;;-2.90;71.61
61474;BME280;53694;49.784;30.150;2024-01-30T05:16:11;101881.89;;;-2.95;72.12
61474;BME280;53694;49.784;30.150;2024-01-30T05:17:13;101878.72;;;-2.86;72.42
61474;BME280;53694;49.784;30.150;2024-01-30T05:18:14;101874.84;;;-2.65;72.26
61474;BME280;53694;49.784;30.150;2024-01-30T05:19:16;101882.03;;;-2.34;71.72